Time;durP1;ratioP1;P1;durP2;ratioP2;P2;SDS_P1;SDS_P2;PMS_P1;PMS_P2;Temp;Humidity;BMP_temperature;BMP_pressure;BME280_temperature;BME280_humidity;BME280_pressure;Samples;Min_cycle;Max_cycle;Signal;HPM_P1;HPM_P2
2022/11/30 00:02:20;;;;;;;63.00;22.20;;;;;;;;;;7392864;19;19998;-73
2022/11/30 00:04:46;;;;;;;66.82;21.00;;;;;;;;;;7390593;19;20003;-74
2022/11/30 00:07:11;;;;;;;73.03;20.65;;;;;;;;;;7391194;19;20002;-74
2022/11/30 00:09:36;;;;;;;68.78;21.60;;;;;;;;;;7387763;19;19998;-74
2022/11/30 00:12:02;;;;;;;59.58;20.23;;;;;;;;;;7389839;19;19999;-73
2022/11/30 00:14:27;;;;;;;66.80;21.27;;;;;;;;;;7389226;19;20001;-74
2022/11/30 00:16:53;;;;;;;64.07;20.85;;;;;;;;;;7389948;19;20006;-74
2022/11/30 00:19:18;;;;;;;66.10;20.15;;;;;;;;;;7389387;19;20003;-74
2022/11/30 00:21:43;;;;;;;67.82;20.33;;;;;;;;;;7391587;19;20006;-74
2022/11/30 00:24:09;;;;;;;61.45;19.33;;;;;;;;;;7388946;19;20478;-74
2022/11/30 00:26:34;;;;;;;63.97;19.83;;;;;;;;;;7390840;19;20016;-74
2022/11/30 00:28:59;;;;;;;63.20;20.33;;;;;;;;;;7388119;19;20391;-74
2022/11/30 00:31:25;;;;;;;72.07;22.45;;;;;;;;;;7391514;19;20119;-74
2022/11/30 00:33:50;;;;;;;63.00;21.77;;;;;;;;;;7391010;19;20082;-74
2022/11/30 00:36:17;;;;;;;58.88;19.70;;;;;;;;;;7390794;19;19995;-74
2022/11/30 00:38:43;;;;;;;65.97;21.23;;;;;;;;;;7388577;19;20036;-74
2022/11/30 00:41:09;;;;;;;60.20;20.52;;;;;;;;;;7392711;19;20019;-74
2022/11/30 00:43:35;;;;;;;66.78;20.88;;;;;;;;;;7394728;19;20024;-74
2022/11/30 00:46:00;;;;;;;62.85;20.25;;;;;;;;;;7396781;19;20324;-74
2022/11/30 00:48:25;;;;;;;57.20;18.95;;;;;;;;;;7396332;19;20451;-74
2022/11/30 00:50:51;;;;;;;60.72;19.60;;;;;;;;;;7396394;19;20439;-74
2022/11/30 00:53:18;;;;;;;64.68;20.95;;;;;;;;;;7396104;19;20050;-73
2022/11/30 00:55:44;;;;;;;64.15;20.73;;;;;;;;;;7396503;19;20014;-72
2022/11/30 00:58:10;;;;;;;58.88;20.15;;;;;;;;;;7397641;19;20097;-72
2022/11/30 01:00:35;;;;;;;61.20;19.98;;;;;;;;;;7396281;19;20455;-72
2022/11/30 01:03:01;;;;;;;62.97;20.80;;;;;;;;;;7395331;19;20058;-74
2022/11/30 01:05:28;;;;;;;72.03;20.40;;;;;;;;;;7396158;19;20002;-74
2022/11/30 01:07:53;;;;;;;65.15;20.30;;;;;;;;;;7396205;19;20019;-74
2022/11/30 01:10:18;;;;;;;62.20;20.15;;;;;;;;;;7393753;19;19991;-73
2022/11/30 01:12:44;;;;;;;57.17;21.05;;;;;;;;;;7395073;19;20010;-72
2022/11/30 01:15:10;;;;;;;72.25;22.15;;;;;;;;;;7395750;19;19999;-72
2022/11/30 01:17:35;;;;;;;70.90;22.25;;;;;;;;;;7393403;19;19999;-73
2022/11/30 01:20:01;;;;;;;59.85;19.83;;;;;;;;;;7392288;19;20087;-73
2022/11/30 01:22:26;;;;;;;58.83;19.48;;;;;;;;;;7395085;19;20054;-72
2022/11/30 01:24:51;;;;;;;60.47;19.83;;;;;;;;;;7395072;19;19995;-73
2022/11/30 01:27:17;;;;;;;57.13;19.20;;;;;;;;;;7395408;19;19994;-73
2022/11/30 01:29:42;;;;;;;59.33;19.75;;;;;;;;;;7393726;19;20066;-73
2022/11/30 01:32:07;;;;;;;67.25;19.75;;;;;;;;;;7396582;19;19998;-73
2022/11/30 01:34:33;;;;;;;59.65;20.52;;;;;;;;;;7394535;19;20017;-73
2022/11/30 01:36:58;;;;;;;57.17;19.38;;;;;;;;;;7393738;19;20464;-73
2022/11/30 01:39:24;;;;;;;66.35;20.20;;;;;;;;;;7392633;19;20011;-73
2022/11/30 01:41:49;;;;;;;61.72;18.92;;;;;;;;;;7395242;19;20444;-73
2022/11/30 01:44:15;;;;;;;59.72;20.00;;;;;;;;;;7394139;19;20002;-73
2022/11/30 01:47:02;;;;;;;65.78;19.75;;;;;;;;;;7394525;19;20352;-73
2022/11/30 01:49:34;;;;;;;60.45;18.83;;;;;;;;;;7393201;19;19998;-73
2022/11/30 01:52:03;;;;;;;65.07;19.38;;;;;;;;;;7393620;19;20013;-73
2022/11/30 01:54:33;;;;;;;62.72;19.73;;;;;;;;;;7393706;19;20002;-73
2022/11/30 01:57:04;;;;;;;56.43;18.63;;;;;;;;;;7392217;19;20003;-73
2022/11/30 01:59:30;;;;;;;55.28;18.25;;;;;;;;;;7391277;19;20003;-73
2022/11/30 02:01:55;;;;;;;59.40;19.90;;;;;;;;;;7393848;19;20019;-73
2022/11/30 02:04:28;;;;;;;58.55;19.27;;;;;;;;;;7393557;19;20589;-73
2022/11/30 02:06:56;;;;;;;54.30;18.13;;;;;;;;;;7393968;19;20022;-73
2022/11/30 02:09:22;;;;;;;69.18;19.42;;;;;;;;;;7393165;19;20018;-73
2022/11/30 02:11:48;;;;;;;60.88;19.08;;;;;;;;;;7394078;19;20002;-74
2022/11/30 02:14:28;;;;;;;58.58;20.00;;;;;;;;;;7391741;19;19998;-73
2022/11/30 02:17:15;;;;;;;62.35;20.35;;;;;;;;;;7390652;19;20027;-73
2022/11/30 02:20:01;;;;;;;70.90;21.00;;;;;;;;;;7390855;19;20074;-74
2022/11/30 02:22:45;;;;;;;56.42;19.27;;;;;;;;;;7393540;19;20007;-76
2022/11/30 02:25:19;;;;;;;59.90;19.40;;;;;;;;;;7393222;19;20312;-73
2022/11/30 02:28:05;;;;;;;63.75;19.55;;;;;;;;;;7393227;19;19998;-75
2022/11/30 02:30:33;;;;;;;65.43;19.77;;;;;;;;;;7391196;19;19995;-73
2022/11/30 02:33:07;;;;;;;64.30;18.63;;;;;;;;;;7392473;19;20006;-73
2022/11/30 02:35:36;;;;;;;67.40;20.15;;;;;;;;;;7392760;19;20023;-73
2022/11/30 02:38:03;;;;;;;54.92;19.90;;;;;;;;;;7389745;19;20478;-73
2022/11/30 02:40:28;;;;;;;64.30;19.52;;;;;;;;;;7389325;19;20374;-74
2022/11/30 02:42:56;;;;;;;60.72;20.08;;;;;;;;;;7392221;19;19994;-73
2022/11/30 02:45:52;;;;;;;60.72;20.27;;;;;;;;;;7392542;19;19994;-73
2022/11/30 02:48:32;;;;;;;69.05;19.05;;;;;;;;;;7392333;19;20467;-73
2022/11/30 02:51:01;;;;;;;63.17;19.83;;;;;;;;;;7395512;19;20346;-73
2022/11/30 02:53:27;;;;;;;65.93;21.65;;;;;;;;;;7392324;19;20092;-73
2022/11/30 02:55:53;;;;;;;59.80;19.73;;;;;;;;;;7392358;19;20014;-74
2022/11/30 02:58:20;;;;;;;65.88;20.40;;;;;;;;;;7391958;19;20001;-74
2022/11/30 03:00:45;;;;;;;62.65;20.30;;;;;;;;;;7392719;19;20062;-74
2022/11/30 03:03:10;;;;;;;68.68;19.95;;;;;;;;;;7393795;19;20006;-74
2022/11/30 03:05:36;;;;;;;60.10;17.27;;;;;;;;;;7389880;19;19995;-74
2022/11/30 03:08:01;;;;;;;64.85;20.25;;;;;;;;;;7394388;19;20296;-74
2022/11/30 03:10:26;;;;;;;61.30;19.27;;;;;;;;;;7390414;19;20512;-74
2022/11/30 03:12:52;;;;;;;59.30;20.23;;;;;;;;;;7391108;19;20002;-74
2022/11/30 03:15:17;;;;;;;62.30;17.88;;;;;;;;;;7390617;19;20003;-74
2022/11/30 03:17:42;;;;;;;69.20;19.20;;;;;;;;;;7390895;19;20482;-73
2022/11/30 03:20:09;;;;;;;57.55;19.40;;;;;;;;;;7390424;19;19998;-73
2022/11/30 03:22:34;;;;;;;69.55;19.52;;;;;;;;;;7391029;19;20342;-74
2022/11/30 03:24:59;;;;;;;61.70;20.17;;;;;;;;;;7391621;19;19999;-74
2022/11/30 03:27:25;;;;;;;60.90;20.02;;;;;;;;;;7391098;19;20463;-74
2022/11/30 03:29:50;;;;;;;62.58;18.92;;;;;;;;;;7389957;19;20021;-74
2022/11/30 03:32:15;;;;;;;60.78;20.20;;;;;;;;;;7387126;19;20054;-74
2022/11/30 03:34:41;;;;;;;73.57;20.77;;;;;;;;;;7392415;19;20002;-74
2022/11/30 03:37:06;;;;;;;71.90;20.17;;;;;;;;;;7393761;19;20087;-74
2022/11/30 03:39:31;;;;;;;65.97;18.63;;;;;;;;;;7388295;19;19998;-74
2022/11/30 03:41:57;;;;;;;73.00;19.25;;;;;;;;;;7388957;19;19990;-74
2022/11/30 03:44:22;;;;;;;70.32;20.95;;;;;;;;;;7389833;19;20006;-74
2022/11/30 03:46:47;;;;;;;69.40;20.95;;;;;;;;;;7388918;19;19998;-74
2022/11/30 03:49:13;;;;;;;69.93;20.95;;;;;;;;;;7389610;19;20010;-74
2022/11/30 03:51:38;;;;;;;61.47;19.92;;;;;;;;;;7390780;19;19999;-74
2022/11/30 03:54:03;;;;;;;64.55;19.33;;;;;;;;;;7389932;19;20022;-74
2022/11/30 03:56:29;;;;;;;73.70;21.27;;;;;;;;;;7389971;19;20001;-74
2022/11/30 03:58:54;;;;;;;76.40;20.48;;;;;;;;;;7389654;19;20339;-74
2022/11/30 04:01:22;;;;;;;76.28;20.23;;;;;;;;;;7390584;19;20023;-74
2022/11/30 04:03:48;;;;;;;76.70;20.38;;;;;;;;;;7390033;19;20110;-74
2022/11/30 04:06:14;;;;;;;74.13;19.85;;;;;;;;;;7390184;19;20030;-74
2022/11/30 04:08:40;;;;;;;79.18;20.92;;;;;;;;;;7388419;19;20003;-74
2022/11/30 04:11:06;;;;;;;59.03;18.95;;;;;;;;;;7390153;19;20007;-74
2022/11/30 04:13:33;;;;;;;70.97;19.38;;;;;;;;;;7389333;19;20003;-76
2022/11/30 04:15:59;;;;;;;66.15;19.23;;;;;;;;;;7392659;19;20002;-75
2022/11/30 04:18:27;;;;;;;76.80;20.55;;;;;;;;;;7395532;19;20006;-72
2022/11/30 04:20:54;;;;;;;66.18;20.73;;;;;;;;;;7397239;19;20019;-72
2022/11/30 04:23:20;;;;;;;67.72;20.23;;;;;;;;;;7396732;19;20073;-72
2022/11/30 04:25:46;;;;;;;78.57;20.92;;;;;;;;;;7396217;19;20066;-72
2022/11/30 04:28:13;;;;;;;83.82;21.45;;;;;;;;;;7396688;19;20011;-73
2022/11/30 04:30:38;;;;;;;79.05;20.55;;;;;;;;;;7397132;19;20007;-73
2022/11/30 04:33:04;;;;;;;74.38;19.65;;;;;;;;;;7396266;19;19998;-73
2022/11/30 04:35:31;;;;;;;73.07;21.63;;;;;;;;;;7396888;19;19991;-74
2022/11/30 04:37:56;;;;;;;78.43;20.92;;;;;;;;;;7394459;19;20483;-72
2022/11/30 04:40:22;;;;;;;74.68;19.90;;;;;;;;;;7392974;19;19997;-72
2022/11/30 04:42:47;;;;;;;75.95;19.20;;;;;;;;;;7395766;19;19999;-72
2022/11/30 04:45:12;;;;;;;69.38;20.13;;;;;;;;;;7396308;19;20023;-72
2022/11/30 04:47:38;;;;;;;75.72;19.92;;;;;;;;;;7396746;19;19991;-72
2022/11/30 04:50:05;;;;;;;73.38;20.63;;;;;;;;;;7393924;19;20342;-72
2022/11/30 04:52:30;;;;;;;70.30;19.60;;;;;;;;;;7396191;19;20379;-72
2022/11/30 04:54:56;;;;;;;73.60;20.50;;;;;;;;;;7395794;19;20074;-72
2022/11/30 04:57:22;;;;;;;72.97;21.15;;;;;;;;;;7394294;19;20455;-73
2022/11/30 04:59:47;;;;;;;68.72;20.80;;;;;;;;;;7394270;19;19991;-74
2022/11/30 05:02:12;;;;;;;67.97;20.27;;;;;;;;;;7394327;19;20083;-73
2022/11/30 05:04:38;;;;;;;71.03;20.60;;;;;;;;;;7395247;19;19994;-73
2022/11/30 05:07:03;;;;;;;76.90;21.20;;;;;;;;;;7397671;19;20086;-74
2022/11/30 05:09:28;;;;;;;72.45;20.13;;;;;;;;;;7392386;19;19987;-74
2022/11/30 05:11:54;;;;;;;66.45;18.75;;;;;;;;;;7395759;19;19999;-74
2022/11/30 05:14:19;;;;;;;72.07;18.90;;;;;;;;;;7395297;19;19986;-74
2022/11/30 05:16:48;;;;;;;72.35;20.55;;;;;;;;;;7394255;19;20022;-74
2022/11/30 05:19:13;;;;;;;73.70;20.20;;;;;;;;;;7396455;19;20062;-73
2022/11/30 05:21:39;;;;;;;69.75;19.67;;;;;;;;;;7393464;19;20056;-73
2022/11/30 05:24:05;;;;;;;65.88;18.42;;;;;;;;;;7394605;19;20058;-73
2022/11/30 05:26:30;;;;;;;61.83;18.48;;;;;;;;;;7394819;19;19998;-73
2022/11/30 05:28:56;;;;;;;72.95;17.92;;;;;;;;;;7392516;19;19995;-73
2022/11/30 05:31:21;;;;;;;66.95;17.90;;;;;;;;;;7395476;19;19999;-74
2022/11/30 05:33:50;;;;;;;66.30;18.20;;;;;;;;;;7393361;19;19991;-75
2022/11/30 05:36:16;;;;;;;58.38;18.02;;;;;;;;;;7394207;19;20467;-73
2022/11/30 05:38:41;;;;;;;60.22;16.98;;;;;;;;;;7394156;19;20036;-74
2022/11/30 05:41:07;;;;;;;53.72;16.60;;;;;;;;;;7398635;19;20711;-74
2022/11/30 05:43:32;;;;;;;56.53;16.65;;;;;;;;;;7397901;19;19991;-72
2022/11/30 05:46:02;;;;;;;67.38;17.88;;;;;;;;;;7396064;19;19999;-73
2022/11/30 05:48:30;;;;;;;54.97;17.45;;;;;;;;;;7397563;19;20356;-74
2022/11/30 05:51:07;;;;;;;63.10;15.85;;;;;;;;;;7396973;19;20001;-74
2022/11/30 05:53:33;;;;;;;55.80;16.20;;;;;;;;;;7398254;19;20010;-73
2022/11/30 05:56:03;;;;;;;57.17;16.55;;;;;;;;;;7394197;19;20025;-73
2022/11/30 05:58:28;;;;;;;58.15;17.58;;;;;;;;;;7394373;19;19999;-73
2022/11/30 06:00:54;;;;;;;52.30;16.05;;;;;;;;;;7394370;19;20005;-73
2022/11/30 06:03:19;;;;;;;53.92;16.88;;;;;;;;;;7393678;19;20463;-72
2022/11/30 06:05:44;;;;;;;56.83;16.42;;;;;;;;;;7394473;19;20002;-72
2022/11/30 06:08:10;;;;;;;54.72;16.63;;;;;;;;;;7391434;19;20114;-74
2022/11/30 06:10:35;;;;;;;50.75;16.38;;;;;;;;;;7389584;19;20025;-75
2022/11/30 06:13:05;;;;;;;59.13;16.45;;;;;;;;;;7359878;19;20002;-75
2022/11/30 06:15:31;;;;;;;58.85;16.98;;;;;;;;;;7322465;19;19998;-74
2022/11/30 06:17:56;;;;;;;56.20;16.25;;;;;;;;;;7389500;19;20035;-74
2022/11/30 06:20:21;;;;;;;57.03;17.42;;;;;;;;;;7390379;19;20002;-74
2022/11/30 06:22:47;;;;;;;52.35;15.80;;;;;;;;;;7391951;19;20337;-74
2022/11/30 06:25:13;;;;;;;60.60;17.67;;;;;;;;;;7393888;19;20001;-73
2022/11/30 06:27:39;;;;;;;48.58;17.48;;;;;;;;;;7392859;19;20003;-73
2022/11/30 06:30:07;;;;;;;48.50;15.85;;;;;;;;;;7388950;19;20037;-78
2022/11/30 06:32:32;;;;;;;53.05;16.73;;;;;;;;;;7392183;19;20011;-77
2022/11/30 06:34:58;;;;;;;55.67;16.48;;;;;;;;;;7390909;19;20003;-77
2022/11/30 06:37:23;;;;;;;48.25;15.43;;;;;;;;;;7390756;19;20142;-78
2022/11/30 06:39:48;;;;;;;48.95;16.40;;;;;;;;;;7391537;19;20002;-77
2022/11/30 06:42:14;;;;;;;51.03;16.13;;;;;;;;;;7393414;19;20002;-76
2022/11/30 06:44:39;;;;;;;47.03;14.60;;;;;;;;;;7394331;19;19998;-77
2022/11/30 06:47:04;;;;;;;48.10;14.82;;;;;;;;;;7390655;19;20003;-76
2022/11/30 06:49:29;;;;;;;48.88;14.95;;;;;;;;;;7389993;19;20009;-79
2022/11/30 06:51:55;;;;;;;51.03;15.50;;;;;;;;;;7384366;19;20003;-78
2022/11/30 06:54:20;;;;;;;40.63;14.02;;;;;;;;;;7389628;19;20062;-76
2022/11/30 06:56:47;;;;;;;48.95;15.68;;;;;;;;;;7393415;19;20022;-79
2022/11/30 06:59:12;;;;;;;46.50;14.80;;;;;;;;;;7391540;19;20002;-77
2022/11/30 07:01:37;;;;;;;49.80;17.30;;;;;;;;;;7391128;19;20084;-77
2022/11/30 07:04:03;;;;;;;47.63;16.83;;;;;;;;;;7391808;19;20082;-78
2022/11/30 07:06:28;;;;;;;59.47;15.95;;;;;;;;;;7392918;19;20281;-77
2022/11/30 07:08:53;;;;;;;55.70;17.00;;;;;;;;;;7389593;19;19998;-79
2022/11/30 07:11:19;;;;;;;47.63;15.65;;;;;;;;;;7391300;19;19991;-76
2022/11/30 07:13:44;;;;;;;48.45;14.43;;;;;;;;;;7390320;19;20016;-78
2022/11/30 07:16:10;;;;;;;46.58;14.57;;;;;;;;;;7391576;19;19990;-76
2022/11/30 07:18:36;;;;;;;43.53;14.63;;;;;;;;;;7388006;19;20001;-77
2022/11/30 07:21:03;;;;;;;41.58;14.65;;;;;;;;;;7389751;19;20265;-79
2022/11/30 07:26:12;;;;;;;42.83;13.85;;;;;;;;;;7387123;19;20015;-74
2022/11/30 07:28:40;;;;;;;46.30;14.23;;;;;;;;;;7387146;19;20002;-77
2022/11/30 07:31:18;;;;;;;43.55;12.80;;;;;;;;;;7392378;19;20023;-74
2022/11/30 07:33:44;;;;;;;43.50;13.27;;;;;;;;;;7391751;19;20372;-75
2022/11/30 07:36:10;;;;;;;38.53;13.55;;;;;;;;;;7392574;19;19994;-75
2022/11/30 07:38:35;;;;;;;42.25;13.52;;;;;;;;;;7390195;19;20562;-75
2022/11/30 07:41:00;;;;;;;44.38;14.52;;;;;;;;;;7389983;19;20059;-74
2022/11/30 07:43:27;;;;;;;39.17;14.00;;;;;;;;;;7389748;19;20510;-75
2022/11/30 07:45:53;;;;;;;43.38;14.15;;;;;;;;;;7390248;19;20535;-76
2022/11/30 07:48:19;;;;;;;39.65;12.85;;;;;;;;;;7390478;19;20011;-82
2022/11/30 07:50:45;;;;;;;39.50;12.98;;;;;;;;;;7388415;19;19994;-80
2022/11/30 07:53:10;;;;;;;40.63;11.80;;;;;;;;;;7387162;19;19994;-77
2022/11/30 07:55:35;;;;;;;36.40;11.75;;;;;;;;;;7388688;19;19998;-77
2022/11/30 07:58:00;;;;;;;34.30;11.52;;;;;;;;;;7388911;19;20002;-82
2022/11/30 08:00:26;;;;;;;37.08;12.10;;;;;;;;;;7389130;19;19999;-77
2022/11/30 08:02:51;;;;;;;34.15;11.50;;;;;;;;;;7393689;19;19994;-79
2022/11/30 08:05:17;;;;;;;40.17;12.52;;;;;;;;;;7396421;19;19999;-79
2022/11/30 08:07:44;;;;;;;46.38;13.35;;;;;;;;;;7390826;19;20014;-80
2022/11/30 08:10:10;;;;;;;42.08;13.20;;;;;;;;;;7387946;19;19999;-78
2022/11/30 08:12:36;;;;;;;33.65;11.38;;;;;;;;;;7389366;19;20050;-77
2022/11/30 08:15:01;;;;;;;32.95;10.82;;;;;;;;;;7390012;19;20007;-76
2022/11/30 08:17:26;;;;;;;37.67;11.80;;;;;;;;;;7389440;19;20030;-76
2022/11/30 08:19:51;;;;;;;33.00;11.65;;;;;;;;;;7387912;19;20017;-81
2022/11/30 08:22:17;;;;;;;40.15;10.85;;;;;;;;;;7390444;19;19994;-79
2022/11/30 08:24:42;;;;;;;31.98;11.13;;;;;;;;;;7388663;19;20603;-77
2022/11/30 08:27:07;;;;;;;31.77;11.82;;;;;;;;;;7388282;19;20459;-79
2022/11/30 08:29:33;;;;;;;34.03;12.20;;;;;;;;;;7386945;19;20032;-77
2022/11/30 08:31:58;;;;;;;37.53;11.55;;;;;;;;;;7387428;19;20001;-78
2022/11/30 08:34:25;;;;;;;40.47;12.38;;;;;;;;;;7388185;19;20039;-78
2022/11/30 08:36:51;;;;;;;36.38;11.70;;;;;;;;;;7388820;19;20499;-77
2022/11/30 08:39:16;;;;;;;30.35;11.98;;;;;;;;;;7388250;19;20003;-76
2022/11/30 08:41:41;;;;;;;33.75;12.48;;;;;;;;;;7386165;19;20459;-76
2022/11/30 08:44:07;;;;;;;38.92;12.88;;;;;;;;;;7385882;19;20003;-76
2022/11/30 08:46:32;;;;;;;40.40;12.95;;;;;;;;;;7388078;19;20026;-77
2022/11/30 08:48:58;;;;;;;42.58;12.73;;;;;;;;;;7388715;19;19999;-75
2022/11/30 08:51:23;;;;;;;40.58;12.88;;;;;;;;;;7389510;19;20399;-76
2022/11/30 08:53:49;;;;;;;37.80;12.50;;;;;;;;;;7386779;19;20002;-74
2022/11/30 08:56:18;;;;;;;31.50;12.02;;;;;;;;;;7388295;19;19995;-74
2022/11/30 08:58:44;;;;;;;36.50;13.30;;;;;;;;;;7387804;19;20058;-75
2022/11/30 09:01:18;;;;;;;38.65;13.32;;;;;;;;;;7387624;19;20288;-76
2022/11/30 09:03:45;;;;;;;36.67;13.13;;;;;;;;;;7393492;19;20014;-75
2022/11/30 09:06:21;;;;;;;39.28;13.60;;;;;;;;;;7396934;19;20451;-76
2022/11/30 09:08:48;;;;;;;42.30;13.23;;;;;;;;;;7397175;19;20009;-76
2022/11/30 09:11:19;;;;;;;36.15;13.13;;;;;;;;;;7395255;19;20471;-75
2022/11/30 09:13:46;;;;;;;33.40;12.75;;;;;;;;;;7393764;19;20018;-75
2022/11/30 09:16:13;;;;;;;35.33;13.57;;;;;;;;;;7394292;19;20013;-75
2022/11/30 09:18:38;;;;;;;35.47;12.57;;;;;;;;;;7396189;19;20046;-77
2022/11/30 09:21:07;;;;;;;35.42;12.10;;;;;;;;;;7395767;19;20082;-75
2022/11/30 09:23:33;;;;;;;34.03;12.23;;;;;;;;;;7395753;19;20002;-75
2022/11/30 09:26:00;;;;;;;25.58;10.77;;;;;;;;;;7392948;19;20010;-76
2022/11/30 09:28:26;;;;;;;29.88;10.93;;;;;;;;;;7395021;19;20451;-75
2022/11/30 09:30:52;;;;;;;28.98;10.13;;;;;;;;;;7393305;19;19999;-74
2022/11/30 09:33:19;;;;;;;24.83;10.60;;;;;;;;;;7393114;19;19995;-74
2022/11/30 09:35:44;;;;;;;23.88;10.52;;;;;;;;;;7394561;19;20058;-75
2022/11/30 09:38:10;;;;;;;37.20;11.70;;;;;;;;;;7392477;19;20464;-75
2022/11/30 09:40:39;;;;;;;29.13;10.35;;;;;;;;;;7393501;19;20015;-75
2022/11/30 09:43:45;;;;;;;28.02;9.45;;;;;;;;;;7395574;19;20054;-75
2022/11/30 09:46:10;;;;;;;28.33;10.48;;;;;;;;;;7394441;19;20015;-74
2022/11/30 09:48:58;;;;;;;35.40;10.95;;;;;;;;;;7394735;19;19990;-74
2022/11/30 09:51:26;;;;;;;31.85;11.25;;;;;;;;;;7395390;19;20006;-75
2022/11/30 09:54:08;;;;;;;30.13;11.93;;;;;;;;;;7393461;19;20055;-76
2022/11/30 09:56:36;;;;;;;;;;;;;;;;;;7394976;19;20066;-76
2022/11/30 09:59:25;;;;;;;33.05;10.82;;;;;;;;;;7392566;19;19974;-75
2022/11/30 10:01:51;;;;;;;31.30;11.85;;;;;;;;;;7395354;19;19998;-75
2022/11/30 10:04:27;;;;;;;36.63;12.77;;;;;;;;;;7395314;19;19994;-75
2022/11/30 10:07:05;;;;;;;26.10;9.93;;;;;;;;;;7394222;19;19994;-75
2022/11/30 10:09:46;;;;;;;29.88;11.93;;;;;;;;;;7393255;19;19998;-76
2022/11/30 10:12:18;;;;;;;33.47;11.13;;;;;;;;;;7393675;19;20010;-78
2022/11/30 10:15:00;;;;;;;24.55;11.50;;;;;;;;;;7287404;19;21508;-78
2022/11/30 10:17:41;;;;;;;30.48;11.57;;;;;;;;;;7391675;19;20551;-79
2022/11/30 10:20:43;;;;;;;32.28;11.55;;;;;;;;;;7393893;19;20002;-74
2022/11/30 10:23:19;;;;;;;29.30;11.20;;;;;;;;;;7393119;19;19990;-74
2022/11/30 10:26:13;;;;;;;36.28;11.90;;;;;;;;;;7393804;19;20090;-75
2022/11/30 10:28:47;;;;;;;43.70;12.63;;;;;;;;;;7393784;19;20002;-74
2022/11/30 10:31:14;;;;;;;53.25;13.10;;;;;;;;;;7394492;19;19998;-74
2022/11/30 10:33:44;;;;;;;53.05;12.02;;;;;;;;;;7392141;19;20002;-76
2022/11/30 10:36:20;;;;;;;39.25;12.57;;;;;;;;;;7391558;19;20017;-73
2022/11/30 10:38:49;;;;;;;25.60;10.10;;;;;;;;;;7390720;19;20074;-74
2022/11/30 10:41:29;;;;;;;27.67;11.23;;;;;;;;;;7394107;19;19998;-75
2022/11/30 10:44:13;;;;;;;26.45;10.30;;;;;;;;;;7392497;19;20027;-76
2022/11/30 10:46:44;;;;;;;23.52;9.48;;;;;;;;;;7393029;19;20002;-76
2022/11/30 10:49:17;;;;;;;26.25;10.57;;;;;;;;;;7392607;19;19994;-75
2022/11/30 10:51:48;;;;;;;26.10;10.65;;;;;;;;;;7391779;19;19999;-76
2022/11/30 10:54:19;;;;;;;26.02;10.13;;;;;;;;;;7392680;19;20090;-74
2022/11/30 10:56:44;;;;;;;;;;;;;;;;;;7391612;19;20010;-75
2022/11/30 10:59:39;;;;;;;28.55;9.77;;;;;;;;;;7386114;19;19918;-75
2022/11/30 11:02:41;;;;;;;24.92;9.00;;;;;;;;;;7392082;19;20011;-75
2022/11/30 11:05:16;;;;;;;24.50;10.35;;;;;;;;;;7386448;19;20009;-72
2022/11/30 11:08:00;;;;;;;24.50;10.27;;;;;;;;;;7386653;19;20479;-74
2022/11/30 11:10:46;;;;;;;25.30;10.23;;;;;;;;;;7392821;19;20058;-75
2022/11/30 11:13:17;;;;;;;29.80;10.75;;;;;;;;;;7393816;19;20062;-74
2022/11/30 11:15:58;;;;;;;26.55;11.27;;;;;;;;;;7392350;19;19995;-75
2022/11/30 11:18:26;;;;;;;30.03;10.77;;;;;;;;;;7390534;19;19999;-76
2022/11/30 11:21:17;;;;;;;28.02;10.40;;;;;;;;;;7389851;19;19990;-73
2022/11/30 11:23:44;;;;;;;28.90;11.65;;;;;;;;;;7390731;19;19999;-73
2022/11/30 11:26:18;;;;;;;27.55;10.13;;;;;;;;;;7389703;19;20018;-72
2022/11/30 11:28:48;;;;;;;22.83;10.30;;;;;;;;;;7384109;19;20027;-72
2022/11/30 11:31:18;;;;;;;24.55;10.55;;;;;;;;;;7391956;19;19994;-73
2022/11/30 11:33:52;;;;;;;29.58;10.98;;;;;;;;;;7388732;19;20499;-73
2022/11/30 11:36:27;;;;;;;23.77;11.23;;;;;;;;;;7387358;19;20018;-75
2022/11/30 11:38:53;;;;;;;27.83;10.70;;;;;;;;;;7391188;19;20014;-75
2022/11/30 11:41:32;;;;;;;32.63;12.13;;;;;;;;;;7391427;19;20486;-75
2022/11/30 11:44:07;;;;;;;23.35;11.07;;;;;;;;;;7390818;19;20040;-76
2022/11/30 11:46:35;;;;;;;32.75;12.80;;;;;;;;;;7391927;19;20387;-74
2022/11/30 11:49:06;;;;;;;26.83;11.73;;;;;;;;;;7388916;19;20010;-74
2022/11/30 11:51:33;;;;;;;;;;;;;;;;;;7390817;19;20010;-76
2022/11/30 11:54:16;;;;;;;33.28;12.43;;;;;;;;;;7388740;19;19917;-76
2022/11/30 11:56:43;;;;;;;29.48;12.65;;;;;;;;;;7387520;19;20151;-74
2022/11/30 11:59:08;;;;;;;34.38;13.95;;;;;;;;;;7390329;19;20035;-76
2022/11/30 12:01:40;;;;;;;32.75;13.23;;;;;;;;;;7390031;19;20464;-74
2022/11/30 12:04:41;;;;;;;29.67;12.27;;;;;;;;;;7389904;19;20007;-74
2022/11/30 12:07:13;;;;;;;28.65;12.70;;;;;;;;;;7390947;19;20405;-73
2022/11/30 12:09:50;;;;;;;30.40;12.00;;;;;;;;;;7389936;19;20019;-75
2022/11/30 12:12:15;;;;;;;30.77;11.63;;;;;;;;;;7390470;19;20012;-74
2022/11/30 12:14:40;;;;;;;29.55;13.40;;;;;;;;;;7391205;19;19998;-74
2022/11/30 12:17:22;;;;;;;28.90;12.85;;;;;;;;;;7391077;19;20111;-73
2022/11/30 12:20:25;;;;;;;27.83;12.45;;;;;;;;;;7389438;19;20003;-74
2022/11/30 12:23:14;;;;;;;23.58;11.93;;;;;;;;;;7389852;19;20463;-73
2022/11/30 12:26:03;;;;;;;31.63;12.93;;;;;;;;;;7387678;19;20006;-74
2022/11/30 12:28:49;;;;;;;30.98;13.02;;;;;;;;;;7390287;19;20002;-75
2022/11/30 12:31:16;;;;;;;34.00;14.32;;;;;;;;;;7387392;19;20006;-72
2022/11/30 12:34:00;;;;;;;26.30;12.85;;;;;;;;;;7386882;19;20496;-73
2022/11/30 12:36:50;;;;;;;25.92;13.00;;;;;;;;;;7390238;19;20002;-73
2022/11/30 12:39:43;;;;;;;24.65;12.57;;;;;;;;;;7397224;19;19999;-72
2022/11/30 12:42:17;;;;;;;24.90;12.40;;;;;;;;;;7396047;19;20002;-72
2022/11/30 12:45:16;;;;;;;31.85;14.55;;;;;;;;;;7395820;19;19998;-70
2022/11/30 12:48:01;;;;;;;29.45;12.93;;;;;;;;;;7396607;19;20638;-75
2022/11/30 12:50:49;;;;;;;27.35;12.70;;;;;;;;;;7396279;19;20012;-75
2022/11/30 12:53:49;;;;;;;29.52;12.75;;;;;;;;;;7391478;19;20365;-73
2022/11/30 12:56:38;;;;;;;38.00;13.77;;;;;;;;;;7396812;19;20007;-72
2022/11/30 12:59:13;;;;;;;40.45;14.00;;;;;;;;;;7396375;19;20496;-71
2022/11/30 13:01:56;;;;;;;32.35;12.93;;;;;;;;;;7395108;19;20024;-74
2022/11/30 13:04:31;;;;;;;33.20;13.77;;;;;;;;;;7396329;19;20015;-72
2022/11/30 13:07:01;;;;;;;38.30;14.57;;;;;;;;;;7396297;19;20013;-71
2022/11/30 13:09:56;;;;;;;32.00;14.75;;;;;;;;;;7395233;19;20066;-72
2022/11/30 13:12:36;;;;;;;28.13;12.93;;;;;;;;;;7394929;19;20383;-72
2022/11/30 13:15:23;;;;;;;29.08;12.55;;;;;;;;;;7400135;19;19998;-71
2022/11/30 13:17:50;;;;;;;32.38;14.75;;;;;;;;;;7396386;19;20002;-72
2022/11/30 13:20:18;;;;;;;33.75;13.77;;;;;;;;;;7396162;19;20002;-74
2022/11/30 13:23:11;;;;;;;31.27;12.95;;;;;;;;;;7395889;19;19995;-71
2022/11/30 13:25:57;;;;;;;31.33;13.93;;;;;;;;;;7396113;19;20006;-71
2022/11/30 13:28:22;;;;;;;31.45;13.65;;;;;;;;;;7397025;19;19995;-72
2022/11/30 13:30:50;;;;;;;29.80;14.68;;;;;;;;;;7390681;19;20033;-74
2022/11/30 13:33:34;;;;;;;32.90;14.55;;;;;;;;;;7388497;19;20460;-73
2022/11/30 13:36:03;;;;;;;43.70;15.93;;;;;;;;;;7394550;19;20682;-73
2022/11/30 13:38:29;;;;;;;28.30;14.45;;;;;;;;;;7390926;19;20018;-71
2022/11/30 13:41:00;;;;;;;36.17;15.50;;;;;;;;;;7388659;19;19998;-70
2022/11/30 13:43:29;;;;;;;38.50;15.20;;;;;;;;;;7390155;19;20019;-70
2022/11/30 13:46:13;;;;;;;34.80;13.90;;;;;;;;;;7393162;19;19999;-70
2022/11/30 13:48:40;;;;;;;33.00;14.95;;;;;;;;;;7391483;19;20130;-70
2022/11/30 13:51:06;;;;;;;33.50;13.68;;;;;;;;;;7391099;19;20377;-70
2022/11/30 13:53:38;;;;;;;34.40;14.88;;;;;;;;;;7391607;19;20431;-70
2022/11/30 13:56:06;;;;;;;35.38;15.02;;;;;;;;;;7393533;19;20484;-72
2022/11/30 13:58:32;;;;;;;31.48;13.85;;;;;;;;;;7394391;19;20016;-71
2022/11/30 14:01:02;;;;;;;35.35;15.57;;;;;;;;;;7392198;19;20006;-70
2022/11/30 14:03:31;;;;;;;35.58;15.70;;;;;;;;;;7393122;19;20026;-70
2022/11/30 14:06:03;;;;;;;32.97;14.38;;;;;;;;;;7395534;19;20006;-71
2022/11/30 14:08:35;;;;;;;30.17;14.63;;;;;;;;;;7397856;19;20003;-70
2022/11/30 14:11:36;;;;;;;31.92;14.57;;;;;;;;;;7392345;19;20011;-70
2022/11/30 14:14:21;;;;;;;;;;;;;;;;;;7394922;19;20002;-71
2022/11/30 14:16:47;;;;;;;36.58;14.52;;;;;;;;;;7395500;19;20318;-70
2022/11/30 14:19:12;;;;;;;32.05;13.85;;;;;;;;;;7392717;19;20087;-71
2022/11/30 14:21:43;;;;;;;34.17;14.80;;;;;;;;;;7391758;19;20003;-71
2022/11/30 14:24:22;;;;;;;36.08;15.15;;;;;;;;;;7393244;19;19998;-71
2022/11/30 14:26:50;;;;;;;36.88;15.32;;;;;;;;;;7394548;19;20018;-71
2022/11/30 14:29:26;;;;;;;36.65;16.73;;;;;;;;;;7390974;19;20003;-70
2022/11/30 14:32:31;;;;;;;40.97;19.05;;;;;;;;;;7392306;19;20098;-71
2022/11/30 14:35:12;;;;;;;34.08;16.98;;;;;;;;;;7387638;19;20023;-71
2022/11/30 14:37:44;;;;;;;;;;;;;;;;;;7389841;19;20014;-70
2022/11/30 14:40:16;;;;;;;32.92;15.77;;;;;;;;;;7389123;19;19925;-71